Time;durP1;ratioP1;P1;durP2;ratioP2;P2;SDS_P1;SDS_P2;PMS_P1;PMS_P2;Temp;Humidity;BMP_temperature;BMP_pressure;BME280_temperature;BME280_humidity;BME280_pressure;Samples;Min_cycle;Max_cycle;Signal;HPM_P1;HPM_P2
2022/05/23 00:01:59;;;;;;;3.40;1.13;;;20.30;99.90;;;;;;7387823;19;20142;-75
2022/05/23 00:04:25;;;;;;;2.03;1.40;;;19.90;99.90;;;;;;7390517;19;20163;-81
2022/05/23 00:06:51;;;;;;;1.70;1.30;;;19.60;99.90;;;;;;7390293;19;20146;-75
2022/05/23 00:09:17;;;;;;;1.67;1.20;;;19.60;99.90;;;;;;7390332;19;20490;-79
2022/05/23 00:11:44;;;;;;;2.13;1.45;;;19.70;99.90;;;;;;7388471;19;20154;-80
2022/05/23 00:14:10;;;;;;;2.22;1.20;;;19.70;99.90;;;;;;7389247;19;20151;-75
2022/05/23 00:16:41;;;;;;;1.98;1.10;;;19.70;99.90;;;;;;7392457;19;20138;-78
2022/05/23 00:19:11;;;;;;;1.77;1.20;;;20.00;99.90;;;;;;7391010;19;20151;-74
2022/05/23 00:21:38;;;;;;;1.60;1.10;;;20.00;99.90;;;;;;7390656;19;20190;-75
2022/05/23 00:24:04;;;;;;;1.23;1.10;;;19.90;99.90;;;;;;7397883;19;20131;-78
2022/05/23 00:26:30;;;;;;;1.27;0.82;;;19.80;99.90;;;;;;7389223;19;20134;-76
2022/05/23 00:28:56;;;;;;;1.00;0.90;;;19.40;99.90;;;;;;7387720;19;20134;-75
2022/05/23 00:31:22;;;;;;;1.98;1.23;;;19.30;99.90;;;;;;7388381;19;20442;-81
2022/05/23 00:36:33;;;;;;;1.30;1.08;;;19.50;99.90;;;;;;7392155;19;20134;-75
2022/05/23 00:38:59;;;;;;;1.83;1.15;;;19.70;99.90;;;;;;7387904;19;20665;-78
2022/05/23 00:44:32;;;;;;;2.97;0.90;;;20.10;99.90;;;;;;7388003;19;20142;-79
2022/05/23 00:47:02;;;;;;;1.58;0.98;;;20.10;99.90;;;;;;7389431;19;20556;-76
2022/05/23 00:49:34;;;;;;;1.77;0.95;;;19.90;99.90;;;;;;7388321;19;20131;-78
2022/05/23 00:52:06;;;;;;;1.30;1.20;;;19.60;99.90;;;;;;7389555;19;20127;-76
2022/05/23 00:54:37;;;;;;;2.20;1.23;;;19.60;99.90;;;;;;7387248;19;20135;-76
2022/05/23 00:57:05;;;;;;;2.03;1.02;;;19.80;99.90;;;;;;7389161;19;20159;-75
2022/05/23 00:59:33;;;;;;;2.28;0.98;;;19.40;99.90;;;;;;7388324;19;20135;-79
2022/05/23 01:02:01;;;;;;;4.30;1.20;;;19.30;99.90;;;;;;7385554;19;20605;-75
2022/05/23 01:04:29;;;;;;;6.65;1.60;;;19.20;99.90;;;;;;7391059;19;20151;-79
2022/05/23 01:06:54;;;;;;;4.22;1.40;;;19.30;99.90;;;;;;7394086;19;20134;-78
2022/05/23 01:09:23;;;;;;;2.47;1.15;;;19.40;99.90;;;;;;7395150;19;20636;-76
2022/05/23 01:11:49;;;;;;;1.55;1.40;;;19.30;99.90;;;;;;7395655;19;20176;-74
2022/05/23 01:14:14;;;;;;;1.50;1.20;;;19.10;99.90;;;;;;7394929;19;20388;-75
2022/05/23 01:16:40;;;;;;;1.92;1.25;;;19.20;99.90;;;;;;7396416;19;20140;-74
2022/05/23 01:19:07;;;;;;;1.10;1.00;;;19.20;99.90;;;;;;7398093;19;20135;-79
2022/05/23 01:21:53;;;;;;;1.83;1.20;;;19.30;99.90;;;;;;7393462;19;20146;-78
2022/05/23 01:24:28;;;;;;;3.08;1.88;;;19.30;99.90;;;;;;7396630;19;20134;-80
2022/05/23 01:26:55;;;;;;;2.67;0.98;;;19.20;99.90;;;;;;7397652;19;20138;-79
2022/05/23 01:29:21;;;;;;;2.25;1.35;;;19.40;99.90;;;;;;7401195;19;20151;-78
2022/05/23 01:31:47;;;;;;;2.22;1.27;;;19.30;99.90;;;;;;7394641;19;20186;-79
2022/05/23 01:34:13;;;;;;;2.58;1.13;;;19.00;99.90;;;;;;7395753;19;20242;-78
2022/05/23 01:36:39;;;;;;;1.63;1.00;;;19.00;99.90;;;;;;7392887;19;20626;-75
2022/05/23 01:39:04;;;;;;;1.83;1.27;;;19.20;99.90;;;;;;7399554;19;20150;-75
2022/05/23 01:41:30;;;;;;;3.15;1.40;;;19.00;99.90;;;;;;7394643;19;20139;-79
2022/05/23 01:43:56;;;;;;;1.63;1.15;;;18.70;99.90;;;;;;7394840;19;20154;-79
2022/05/23 01:46:22;;;;;;;2.13;1.30;;;18.80;99.90;;;;;;7398243;19;20140;-75
2022/05/23 01:48:48;;;;;;;1.38;1.10;;;18.90;99.90;;;;;;7393096;19;20139;-78
2022/05/23 01:51:14;;;;;;;1.60;1.10;;;19.20;99.90;;;;;;7393528;19;20138;-75
2022/05/23 01:53:43;;;;;;;1.65;1.13;;;19.30;99.90;;;;;;7391851;19;20598;-77
2022/05/23 01:56:09;;;;;;;2.05;1.08;;;19.10;99.90;;;;;;7396560;19;20529;-78
2022/05/23 02:01:19;;;;;;;1.92;1.52;;;19.10;99.90;;;;;;7393289;19;20135;-79
2022/05/23 02:03:46;;;;;;;4.43;1.40;;;18.90;99.90;;;;;;7396583;19;20154;-79
2022/05/23 02:06:13;;;;;;;2.65;1.40;;;19.10;99.90;;;;;;7393786;19;20131;-75
2022/05/23 02:08:39;;;;;;;1.63;1.10;;;19.10;99.90;;;;;;7394962;19;20156;-75
2022/05/23 02:11:09;;;;;;;2.58;1.52;;;19.00;99.90;;;;;;7393981;19;20489;-80
2022/05/23 02:13:37;;;;;;;2.05;1.30;;;19.30;99.90;;;;;;7393333;19;20145;-78
2022/05/23 02:16:03;;;;;;;1.52;1.13;;;19.50;99.90;;;;;;7392875;19;20151;-78
2022/05/23 02:18:29;;;;;;;3.15;1.10;;;19.50;99.90;;;;;;7398301;19;20468;-75
2022/05/23 02:20:55;;;;;;;1.58;0.95;;;19.10;99.90;;;;;;7403534;19;20154;-78
2022/05/23 02:23:21;;;;;;;7.30;1.67;;;19.10;99.90;;;;;;7392482;19;20131;-78
2022/05/23 02:25:47;;;;;;;2.45;1.60;;;19.40;99.90;;;;;;7392475;19;20601;-77
2022/05/23 02:28:13;;;;;;;1.85;1.30;;;19.60;99.90;;;;;;7396212;19;20126;-79
2022/05/23 02:30:39;;;;;;;2.15;1.38;;;19.60;99.90;;;;;;7393631;19;20134;-75
2022/05/23 02:33:05;;;;;;;1.95;1.33;;;19.50;99.90;;;;;;7391888;19;20167;-76
2022/05/23 02:35:31;;;;;;;1.40;1.30;;;19.30;99.90;;;;;;7395014;19;20153;-80
2022/05/23 02:37:57;;;;;;;2.35;1.35;;;19.30;99.90;;;;;;7399170;19;20141;-76
2022/05/23 02:40:24;;;;;;;3.20;1.52;;;19.30;99.90;;;;;;7391185;19;20152;-76
2022/05/23 02:42:50;;;;;;;1.58;1.25;;;19.30;99.90;;;;;;7392174;19;20130;-78
2022/05/23 02:45:16;;;;;;;1.60;1.17;;;19.30;99.90;;;;;;7393088;19;20442;-75
2022/05/23 02:47:43;;;;;;;2.38;1.45;;;19.20;99.90;;;;;;7391752;19;20130;-77
2022/05/23 02:50:11;;;;;;;4.05;1.45;;;19.30;99.90;;;;;;7392218;19;20142;-74
2022/05/23 02:52:38;;;;;;;3.38;1.80;;;19.40;99.90;;;;;;7391753;19;20131;-75
2022/05/23 02:55:05;;;;;;;2.60;1.50;;;19.30;99.90;;;;;;7396273;19;20138;-77
2022/05/23 02:57:31;;;;;;;2.40;1.70;;;19.30;99.90;;;;;;7396808;19;20147;-78
2022/05/23 02:59:57;;;;;;;3.28;1.80;;;19.20;99.90;;;;;;7390743;19;20151;-78
2022/05/23 03:05:08;;;;;;;3.25;1.40;;;19.00;99.90;;;;;;7390798;19;20499;-75
2022/05/23 03:07:33;;;;;;;1.38;1.20;;;18.80;99.90;;;;;;7390043;19;20126;-74
2022/05/23 03:09:59;;;;;;;3.15;1.70;;;19.00;99.90;;;;;;7390656;19;20153;-78
2022/05/23 03:12:27;;;;;;;2.95;1.60;;;18.80;99.90;;;;;;7392331;19;20579;-78
2022/05/23 03:14:52;;;;;;;2.20;1.40;;;18.70;99.90;;;;;;7397530;19;20143;-78
2022/05/23 03:17:18;;;;;;;2.25;1.25;;;18.50;99.90;;;;;;7393467;19;20166;-74
2022/05/23 03:19:44;;;;;;;3.33;1.70;;;18.80;99.90;;;;;;7390772;19;20889;-78
2022/05/23 03:27:42;;;;;;;2.60;1.40;;;18.90;99.90;;;;;;7393908;19;20138;-74
2022/05/23 03:30:09;;;;;;;1.73;1.35;;;19.00;99.90;;;;;;7391680;19;20123;-74
2022/05/23 03:32:35;;;;;;;3.03;1.33;;;18.90;99.90;;;;;;7396313;19;20143;-74
2022/05/23 03:35:02;;;;;;;1.95;1.25;;;18.90;99.90;;;;;;7389710;19;20161;-77
2022/05/23 03:37:28;;;;;;;1.85;1.20;;;19.00;99.90;;;;;;7389010;19;20158;-78
2022/05/23 03:39:54;;;;;;;1.77;1.13;;;19.00;99.90;;;;;;7390244;19;20218;-77
2022/05/23 03:42:20;;;;;;;2.13;1.23;;;19.10;99.90;;;;;;7388485;19;20138;-77
2022/05/23 03:44:45;;;;;;;1.42;1.20;;;19.10;99.90;;;;;;7389837;19;20142;-75
2022/05/23 03:47:11;;;;;;;2.17;1.35;;;19.00;99.90;;;;;;7394619;19;20126;-76
2022/05/23 03:49:37;;;;;;;2.90;1.40;;;19.00;99.90;;;;;;7390114;19;20149;-80
2022/05/23 03:52:03;;;;;;;1.58;1.40;;;19.10;99.90;;;;;;7388785;19;20122;-79
2022/05/23 03:54:29;;;;;;;1.48;1.27;;;19.10;99.90;;;;;;7389444;19;20134;-79
2022/05/23 03:56:59;;;;;;;4.80;1.55;;;19.20;99.90;;;;;;7387643;19;20227;-80
2022/05/23 03:59:26;;;;;;;1.75;1.20;;;19.10;99.90;;;;;;7391430;19;20147;-76
2022/05/23 04:01:55;;;;;;;6.15;2.13;;;19.10;99.90;;;;;;7387427;19;20135;-75
2022/05/23 04:04:26;;;;;;;3.38;1.80;;;19.30;99.90;;;;;;7394529;19;20191;-78
2022/05/23 04:06:52;;;;;;;2.45;1.70;;;19.30;99.90;;;;;;7390078;19;20131;-79
2022/05/23 04:09:18;;;;;;;2.65;1.80;;;19.50;99.90;;;;;;7390164;19;20143;-75
2022/05/23 04:11:45;;;;;;;3.72;1.55;;;19.40;99.90;;;;;;7388210;19;20594;-76
2022/05/23 04:14:11;;;;;;;1.70;1.38;;;19.30;99.90;;;;;;7390786;19;20155;-79
2022/05/23 04:16:37;;;;;;;3.60;1.60;;;19.40;99.90;;;;;;7389054;19;20142;-79
2022/05/23 04:19:05;;;;;;;1.65;1.30;;;19.40;99.90;;;;;;7391468;19;20138;-76
2022/05/23 04:21:31;;;;;;;1.88;1.20;;;19.30;99.90;;;;;;7389638;19;20146;-75
2022/05/23 04:23:57;;;;;;;1.85;1.35;;;19.20;99.90;;;;;;7388741;19;20229;-75
2022/05/23 04:26:23;;;;;;;1.80;1.20;;;19.20;99.90;;;;;;7389737;19;20224;-74
2022/05/23 04:28:49;;;;;;;1.27;1.05;;;19.00;99.90;;;;;;7387619;19;20126;-75
2022/05/23 04:31:15;;;;;;;1.50;1.35;;;19.00;99.90;;;;;;7389324;19;20246;-80
2022/05/23 04:36:25;;;;;;;1.30;1.13;;;19.30;99.90;;;;;;7388682;19;20156;-77
2022/05/23 04:38:51;;;;;;;3.90;1.13;;;19.30;99.90;;;;;;7395231;19;20126;-78
2022/05/23 04:41:17;;;;;;;2.33;1.23;;;19.30;99.90;;;;;;7394136;19;20600;-75
2022/05/23 04:43:42;;;;;;;1.85;1.20;;;19.40;99.90;;;;;;7395667;19;20153;-75
2022/05/23 04:46:08;;;;;;;1.60;1.17;;;19.40;99.90;;;;;;7398355;19;20157;-75
2022/05/23 04:51:18;;;;;;;2.55;1.00;;;19.40;99.90;;;;;;7396349;19;20139;-79
2022/05/23 04:53:44;;;;;;;3.10;1.30;;;19.40;99.90;;;;;;7402595;19;20299;-78
2022/05/23 04:56:10;;;;;;;2.25;1.00;;;19.30;99.90;;;;;;7395899;19;20696;-79
2022/05/23 04:58:36;;;;;;;1.48;0.98;;;19.20;99.90;;;;;;7394341;19;20502;-79
2022/05/23 05:01:02;;;;;;;1.50;1.10;;;19.20;99.90;;;;;;7393145;19;20134;-76
2022/05/23 05:03:27;;;;;;;1.33;1.23;;;19.20;99.90;;;;;;7395689;19;20165;-76
2022/05/23 05:05:53;;;;;;;2.40;1.30;;;19.20;99.90;;;;;;7392482;19;20594;-77
2022/05/23 05:08:19;;;;;;;1.35;1.15;;;19.00;99.90;;;;;;7393786;19;20127;-77
2022/05/23 05:10:45;;;;;;;3.53;1.35;;;19.00;99.90;;;;;;7397456;19;20170;-76
2022/05/23 05:13:11;;;;;;;2.22;1.40;;;18.90;99.90;;;;;;7394193;19;20134;-78
2022/05/23 05:15:37;;;;;;;2.30;1.50;;;19.00;99.90;;;;;;7393826;19;20613;-77
2022/05/23 05:18:03;;;;;;;3.33;1.50;;;18.80;99.90;;;;;;7393335;19;20138;-76
2022/05/23 05:20:29;;;;;;;2.88;1.40;;;18.90;99.90;;;;;;7393054;19;20147;-77
2022/05/23 05:22:55;;;;;;;2.20;1.30;;;18.90;99.90;;;;;;7393622;19;20223;-75
2022/05/23 05:25:21;;;;;;;1.80;1.40;;;18.80;99.90;;;;;;7394847;19;20218;-76
2022/05/23 05:27:47;;;;;;;2.63;1.60;;;18.90;99.90;;;;;;7398415;19;20127;-78
2022/05/23 05:30:19;;;;;;;1.70;1.40;;;18.90;99.90;;;;;;7393502;19;20134;-77
2022/05/23 05:33:00;;;;;;;3.25;1.48;;;18.90;99.90;;;;;;7396903;19;20143;-77
2022/05/23 05:35:58;;;;;;;3.05;1.30;;;18.90;99.90;;;;;;7395918;19;20250;-74
2022/05/23 05:38:32;;;;;;;1.77;1.17;;;18.90;99.90;;;;;;7392630;19;20218;-76
2022/05/23 05:41:07;;;;;;;2.95;1.75;;;18.90;99.90;;;;;;7395166;19;20149;-78
2022/05/23 05:43:39;;;;;;;2.30;1.33;;;19.00;99.90;;;;;;7400129;19;20118;-79
2022/05/23 05:46:15;;;;;;;1.80;1.20;;;19.10;99.90;;;;;;7395641;19;20150;-79
2022/05/23 05:48:44;;;;;;;3.08;1.55;;;19.10;99.90;;;;;;7393072;19;20137;-75
2022/05/23 05:51:12;;;;;;;4.28;1.90;;;19.10;99.90;;;;;;7393437;19;20168;-78
2022/05/23 05:53:38;;;;;;;4.15;1.80;;;19.00;99.90;;;;;;7394718;19;20628;-80
2022/05/23 05:56:06;;;;;;;2.95;1.42;;;19.00;99.90;;;;;;7395499;19;20139;-79
2022/05/23 05:58:33;;;;;;;1.90;1.65;;;19.00;99.90;;;;;;7395288;19;20525;-78
2022/05/23 06:00:59;;;;;;;2.17;1.80;;;19.00;99.90;;;;;;7399411;19;20217;-75
2022/05/23 06:03:25;;;;;;;2.60;1.90;;;19.10;99.90;;;;;;7395774;19;20151;-75
2022/05/23 06:11:26;;;;;;;2.58;1.63;;;19.00;99.90;;;;;;7392694;19;20539;-75
2022/05/23 06:14:10;;;;;;;3.28;1.85;;;19.30;99.90;;;;;;7391913;19;20142;-76
2022/05/23 06:16:37;;;;;;;2.33;1.50;;;19.40;99.90;;;;;;7393840;19;20134;-76
2022/05/23 06:19:04;;;;;;;1.50;1.40;;;19.50;99.90;;;;;;7392778;19;20135;-75
2022/05/23 06:21:31;;;;;;;2.47;1.90;;;19.70;99.90;;;;;;7392522;19;20143;-80
2022/05/23 06:23:57;;;;;;;3.90;2.03;;;19.70;99.90;;;;;;7390928;19;20155;-75
2022/05/23 06:26:26;;;;;;;5.20;2.65;;;19.80;99.90;;;;;;7392705;19;20209;-74
2022/05/23 06:28:52;;;;;;;3.80;2.03;;;19.90;99.90;;;;;;7393041;19;20614;-74
2022/05/23 06:31:20;;;;;;;1.73;1.63;;;20.00;99.90;;;;;;7398128;19;20131;-74
2022/05/23 06:33:46;;;;;;;2.75;1.80;;;20.00;99.90;;;;;;7394462;19;20138;-74
2022/05/23 06:36:13;;;;;;;1.98;1.77;;;20.20;99.90;;;;;;7391345;19;20150;-74
2022/05/23 06:38:40;;;;;;;2.28;1.50;;;20.30;99.90;;;;;;7392107;19;20131;-72
2022/05/23 06:41:07;;;;;;;3.28;1.85;;;20.50;99.90;;;;;;7390778;19;20641;-73
2022/05/23 06:43:34;;;;;;;2.55;1.67;;;20.60;99.90;;;;;;7390444;19;20139;-73
2022/05/23 06:45:59;;;;;;;1.80;1.42;;;20.70;99.90;;;;;;7393426;19;20484;-73
2022/05/23 06:48:26;;;;;;;3.35;2.00;;;20.60;99.90;;;;;;7392088;19;20134;-73
2022/05/23 06:50:53;;;;;;;2.28;1.65;;;20.40;99.90;;;;;;7390979;19;20131;-72
2022/05/23 06:53:20;;;;;;;4.63;2.10;;;20.30;99.90;;;;;;7397913;19;20142;-73
2022/05/23 06:55:47;;;;;;;4.63;1.88;;;20.10;99.90;;;;;;7390679;19;20210;-74
2022/05/23 06:58:13;;;;;;;2.08;1.73;;;20.10;99.90;;;;;;7389967;19;20146;-74
2022/05/23 07:00:39;;;;;;;2.90;2.00;;;20.40;99.90;;;;;;7384981;19;20803;-73
2022/05/23 07:03:07;;;;;;;2.95;1.58;;;20.60;99.90;;;;;;7391602;19;20174;-73
2022/05/23 07:13:55;;;;;;;1.77;1.65;;;20.90;99.90;;;;;;7390161;19;20146;-73
2022/05/23 07:16:24;;;;;;;2.15;1.35;;;21.20;99.90;;;;;;7389055;19;20166;-74
2022/05/23 07:18:51;;;;;;;2.83;1.67;;;21.10;99.90;;;;;;7390320;19;20214;-74
2022/05/23 07:21:18;;;;;;;1.65;1.52;;;20.80;99.90;;;;;;7389678;19;20135;-74
2022/05/23 07:23:43;;;;;;;2.70;1.67;;;20.70;99.90;;;;;;7391329;19;20146;-73
2022/05/23 07:26:16;;;;;;;2.10;1.50;;;20.40;99.90;;;;;;7391266;19;20146;-73
2022/05/23 07:28:45;;;;;;;4.35;1.50;;;20.40;99.90;;;;;;7389867;19;20134;-74
2022/05/23 07:31:12;;;;;;;1.48;1.38;;;20.40;99.90;;;;;;7388615;19;20141;-74
2022/05/23 07:33:41;;;;;;;2.25;1.50;;;20.30;99.90;;;;;;7388485;19;20130;-72
2022/05/23 07:36:09;;;;;;;3.63;1.40;;;20.30;99.90;;;;;;7389313;19;20134;-72
2022/05/23 07:38:37;;;;;;;2.25;1.80;;;20.60;99.90;;;;;;7392075;19;20138;-73
2022/05/23 07:41:04;;;;;;;3.30;1.60;;;20.90;99.90;;;;;;7395680;19;20139;-72
2022/05/23 07:43:35;;;;;;;1.65;1.30;;;21.00;99.90;;;;;;7388640;19;20214;-74
2022/05/23 07:46:09;;;;;;;2.50;1.70;;;21.10;99.90;;;;;;7393193;19;20142;-73
2022/05/23 07:48:43;;;;;;;1.95;1.48;;;21.20;99.90;;;;;;7389031;19;20624;-73
2022/05/23 07:51:11;;;;;;;3.53;1.50;;;21.50;99.90;;;;;;7389204;19;20161;-74
2022/05/23 08:01:51;;;;;;;2.30;1.35;;;21.00;99.90;;;;;;7388945;19;20149;-73
2022/05/23 08:04:17;;;;;;;2.28;1.38;;;20.80;99.90;;;;;;7391861;19;20142;-73
2022/05/23 08:06:44;;;;;;;2.40;2.03;;;20.80;99.90;;;;;;7388227;19;20146;-73
2022/05/23 08:09:10;;;;;;;2.88;1.70;;;21.00;99.90;;;;;;7388390;19;20143;-73
2022/05/23 08:11:41;;;;;;;5.18;3.35;;;21.20;99.90;;;;;;7388826;19;20253;-72
2022/05/23 08:14:07;;;;;;;3.55;1.80;;;21.30;99.90;;;;;;7393549;19;20214;-73
2022/05/23 08:16:35;;;;;;;4.28;1.80;;;21.30;99.90;;;;;;7388300;19;20126;-74
2022/05/23 08:19:02;;;;;;;2.25;1.58;;;21.40;99.90;;;;;;7386465;19;20138;-73
2022/05/23 08:21:28;;;;;;;2.00;1.70;;;21.50;99.90;;;;;;7388228;19;20137;-72
2022/05/23 08:23:57;;;;;;;1.40;1.30;;;21.50;99.90;;;;;;7385844;19;20138;-72
2022/05/23 08:26:25;;;;;;;2.15;1.60;;;21.40;99.90;;;;;;7388739;19;20146;-73
2022/05/23 08:28:51;;;;;;;2.65;1.55;;;21.40;99.90;;;;;;7389751;19;20134;-72
2022/05/23 08:31:18;;;;;;;3.15;1.40;;;21.40;99.90;;;;;;7388963;19;20230;-73
2022/05/23 08:33:44;;;;;;;3.08;1.50;;;21.40;99.90;;;;;;7388594;19;20130;-73
2022/05/23 08:36:10;;;;;;;2.88;1.60;;;21.30;99.90;;;;;;7390374;19;20130;-73
2022/05/23 08:38:37;;;;;;;3.95;1.60;;;21.10;99.90;;;;;;7387361;19;20148;-73
2022/05/23 08:41:17;;;;;;;4.30;1.70;;;20.90;99.90;;;;;;7388941;19;20126;-73
2022/05/23 08:44:08;;;;;;;1.80;1.27;;;21.00;99.90;;;;;;7387009;19;20134;-73
2022/05/23 08:47:11;;;;;;;2.45;1.58;;;21.10;99.90;;;;;;7396307;19;20144;-73
2022/05/23 08:49:50;;;;;;;1.50;1.40;;;21.10;99.90;;;;;;7387185;19;20197;-74
2022/05/23 08:52:39;;;;;;;1.88;1.30;;;21.10;99.90;;;;;;7387214;19;20150;-74
2022/05/23 08:55:21;;;;;;;4.95;1.65;;;21.30;99.90;;;;;;7386973;19;20153;-74
2022/05/23 08:57:50;;;;;;;2.28;1.75;;;21.20;99.90;;;;;;7388259;19;20153;-74
2022/05/23 09:00:23;;;;;;;2.63;1.92;;;21.20;99.90;;;;;;7389208;19;20531;-73
2022/05/23 09:02:52;;;;;;;3.78;2.10;;;21.10;99.90;;;;;;7390679;19;20547;-74
2022/05/23 09:05:40;;;;;;;2.83;1.90;;;21.20;99.90;;;;;;7391846;19;20168;-74
2022/05/23 09:08:11;;;;;;;2.45;1.80;;;21.20;99.90;;;;;;7387070;19;20150;-74
2022/05/23 09:10:55;;;;;;;1.98;1.63;;;21.10;99.90;;;;;;7386159;19;20138;-74
2022/05/23 09:13:23;;;;;;;2.33;1.60;;;21.20;99.90;;;;;;7387162;19;20154;-75
2022/05/23 09:15:52;;;;;;;2.63;1.83;;;21.30;99.90;;;;;;7385680;19;20161;-73
2022/05/23 09:18:22;;;;;;;3.33;2.15;;;21.50;99.90;;;;;;7388159;19;20131;-74
2022/05/23 09:20:52;;;;;;;4.85;1.73;;;21.60;99.90;;;;;;7391715;19;20150;-73
2022/05/23 09:23:26;;;;;;;3.78;1.95;;;21.60;99.90;;;;;;7389630;19;20235;-73
2022/05/23 09:25:54;;;;;;;3.38;2.08;;;21.60;99.90;;;;;;7395049;19;20130;-73
2022/05/23 09:28:31;;;;;;;2.83;2.00;;;21.50;99.90;;;;;;7393362;19;20158;-73
2022/05/23 09:31:22;;;;;;;4.15;1.67;;;21.50;99.90;;;;;;7394892;19;20142;-74
2022/05/23 09:33:51;;;;;;;3.80;1.75;;;21.50;99.90;;;;;;7393218;19;20142;-71
2022/05/23 09:36:29;;;;;;;2.50;1.73;;;21.50;99.90;;;;;;7398190;19;20174;-73
2022/05/23 09:38:58;;;;;;;2.42;1.95;;;21.50;99.90;;;;;;7393117;19;20183;-74
2022/05/23 09:50:05;;;;;;;4.05;2.15;;;21.60;99.90;;;;;;7393746;19;20142;-74
2022/05/23 09:52:36;;;;;;;3.67;2.05;;;21.90;99.90;;;;;;7393514;19;20134;-72
2022/05/23 09:55:12;;;;;;;3.70;2.05;;;22.00;99.90;;;;;;7401286;19;20142;-75
2022/05/23 09:57:41;;;;;;;5.68;2.22;;;22.00;99.90;;;;;;7391380;19;20499;-73
2022/05/23 10:00:32;;;;;;;3.33;1.90;;;22.10;99.90;;;;;;7392335;19;20142;-72
2022/05/23 10:03:01;;;;;;;2.45;2.00;;;22.20;99.90;;;;;;7393877;19;20226;-74
2022/05/23 10:05:38;;;;;;;2.85;2.17;;;22.20;99.90;;;;;;7394172;19;20127;-72
2022/05/23 10:08:12;;;;;;;2.83;2.00;;;22.20;99.90;;;;;;7392890;19;20130;-74
2022/05/23 10:10:52;;;;;;;2.35;2.00;;;22.40;99.90;;;;;;7404143;19;20594;-71
2022/05/23 10:13:28;;;;;;;4.75;2.58;;;22.70;99.90;;;;;;7393007;19;20160;-73
2022/05/23 10:15:56;;;;;;;2.53;2.00;;;22.60;99.90;;;;;;7391722;19;20146;-73
2022/05/23 10:18:54;;;;;;;4.53;2.08;;;22.70;99.90;;;;;;7390880;19;20154;-73
2022/05/23 10:21:32;;;;;;;4.07;2.22;;;22.80;99.90;;;;;;7390344;19;20135;-73
2022/05/23 10:24:13;;;;;;;3.08;2.15;;;22.70;99.90;;;;;;7392369;19;20166;-73
2022/05/23 10:26:50;;;;;;;3.47;2.15;;;22.50;99.90;;;;;;7404941;19;20135;-74
2022/05/23 10:29:43;;;;;;;4.43;2.40;;;22.30;99.90;;;;;;7393997;19;20161;-72
2022/05/23 10:32:12;;;;;;;3.47;2.20;;;22.40;99.90;;;;;;7393253;19;20158;-72
2022/05/23 10:34:41;;;;;;;1.70;1.60;;;22.50;99.90;;;;;;7390319;19;20459;-74
2022/05/23 10:37:14;;;;;;;2.72;1.98;;;22.50;99.90;;;;;;7391195;19;20146;-74
2022/05/23 10:42:46;;;;;;;2.50;2.10;;;22.50;99.90;;;;;;7389054;19;20146;-74
2022/05/23 10:45:21;;;;;;;4.28;2.78;;;22.60;99.90;;;;;;7394821;19;20143;-74
2022/05/23 10:48:06;;;;;;;2.53;2.28;;;22.70;99.90;;;;;;7389915;19;20184;-74
2022/05/23 10:50:47;;;;;;;4.03;2.92;;;22.70;99.90;;;;;;7390535;19;20150;-74
2022/05/23 10:53:37;;;;;;;6.45;3.35;;;22.70;99.90;;;;;;7390247;19;20138;-73
2022/05/23 10:56:12;;;;;;;5.75;3.60;;;22.60;99.90;;;;;;7390960;19;20130;-72
2022/05/23 10:58:56;;;;;;;3.83;2.75;;;22.60;99.90;;;;;;7395209;19;20648;-74
2022/05/23 11:01:28;;;;;;;4.88;2.22;;;22.60;99.90;;;;;;7393114;19;20151;-74
2022/05/23 11:04:12;;;;;;;2.75;1.90;;;22.50;99.90;;;;;;7392710;19;20162;-74
2022/05/23 11:07:16;;;;;;;4.32;2.15;;;22.60;99.90;;;;;;7389625;19;20190;-73
2022/05/23 11:10:01;;;;;;;2.90;2.13;;;22.50;99.90;;;;;;7391560;19;20480;-73
2022/05/23 11:12:46;;;;;;;6.20;4.63;;;22.50;99.90;;;;;;7389977;19;20150;-75
2022/05/23 11:15:35;;;;;;;9.00;4.43;;;22.40;99.90;;;;;;7390045;19;20146;-75
2022/05/23 11:18:06;;;;;;;12.25;5.40;;;22.30;99.90;;;;;;7394272;19;20134;-72
2022/05/23 11:20:40;;;;;;;8.20;6.63;;;22.00;99.90;;;;;;7389812;19;20150;-72
2022/05/23 11:23:25;;;;;;;8.32;6.60;;;21.70;99.90;;;;;;7390507;19;20150;-73
2022/05/23 11:26:00;;;;;;;7.22;4.10;;;21.60;99.90;;;;;;7389188;19;20134;-75
2022/05/23 11:34:17;;;;;;;3.50;2.35;;;21.30;99.90;;;;;;7397049;19;20206;-72
2022/05/23 11:36:57;;;;;;;6.22;2.63;;;21.20;99.90;;;;;;7388757;19;20142;-73
2022/05/23 11:39:43;;;;;;;4.30;2.70;;;20.80;99.90;;;;;;7389330;19;20134;-74
2022/05/23 11:42:16;;;;;;;4.60;2.83;;;21.00;99.90;;;;;;7389616;19;20585;-74
2022/05/23 11:44:42;;;;;;;3.40;2.75;;;21.00;99.90;;;;;;7389854;19;20119;-72
2022/05/23 11:47:11;;;;;;;5.40;3.03;;;20.90;99.90;;;;;;7386559;19;20144;-74
2022/05/23 11:49:43;;;;;;;6.45;3.00;;;20.70;99.90;;;;;;7391132;19;20135;-73
2022/05/23 11:52:26;;;;;;;5.53;3.22;;;20.70;99.90;;;;;;7388369;19;20132;-73
2022/05/23 11:54:52;;;;;;;5.63;2.53;;;20.50;99.90;;;;;;7390608;19;21169;-74
2022/05/23 11:57:40;;;;;;;4.95;2.50;;;20.30;99.90;;;;;;7389451;19;20127;-73
2022/05/23 12:00:33;;;;;;;4.38;2.17;;;20.30;99.90;;;;;;7388896;19;20130;-74
2022/05/23 12:03:06;;;;;;;5.38;2.25;;;20.20;99.90;;;;;;7390578;19;20488;-72
2022/05/23 12:05:33;;;;;;;5.43;1.90;;;20.00;99.90;;;;;;7391189;19;20134;-71
2022/05/23 12:08:03;;;;;;;6.57;1.98;;;19.90;99.90;;;;;;7388009;19;20514;-74
2022/05/23 12:10:38;;;;;;;3.35;1.60;;;19.80;99.90;;;;;;7388814;19;20127;-74
2022/05/23 12:13:11;;;;;;;2.85;1.67;;;19.80;99.90;;;;;;7388233;19;20146;-72
2022/05/23 12:15:43;;;;;;;6.25;1.83;;;19.80;99.90;;;;;;7388358;19;20127;-74
2022/05/23 12:18:29;;;;;;;2.83;1.70;;;19.80;99.90;;;;;;7389100;19;20158;-73
2022/05/23 12:21:06;;;;;;;4.90;2.13;;;19.60;99.90;;;;;;7392230;19;20594;-75
2022/05/23 12:23:45;;;;;;;3.72;1.70;;;19.50;99.90;;;;;;7389232;19;20119;-76
2022/05/23 12:26:11;;;;;;;3.80;1.92;;;19.50;99.90;;;;;;7388336;19;20131;-72
2022/05/23 12:28:59;;;;;;;3.72;1.98;;;19.50;99.90;;;;;;7389181;19;20133;-73
2022/05/23 12:31:27;;;;;;;5.13;2.35;;;19.50;99.90;;;;;;7388707;19;20134;-73
2022/05/23 12:34:02;;;;;;;6.30;2.10;;;19.40;99.90;;;;;;7389021;19;20127;-75
2022/05/23 12:36:31;;;;;;;3.35;1.70;;;19.50;99.90;;;;;;7389806;19;20134;-72
2022/05/23 12:39:18;;;;;;;3.88;1.42;;;19.60;99.90;;;;;;7388409;19;20142;-72
2022/05/23 12:42:09;;;;;;;4.43;1.52;;;19.60;99.90;;;;;;7389090;19;20134;-75
2022/05/23 12:44:53;;;;;;;3.88;1.50;;;19.70;99.90;;;;;;7387707;19;20150;-72
2022/05/23 12:47:32;;;;;;;6.30;2.00;;;19.70;99.90;;;;;;7386892;19;20523;-75
2022/05/23 12:50:16;;;;;;;7.22;2.00;;;19.80;99.90;;;;;;7388145;19;20612;-73
2022/05/23 12:53:01;;;;;;;8.25;1.92;;;19.90;99.90;;;;;;7392610;19;20137;-73
2022/05/23 12:55:35;;;;;;;4.20;1.83;;;20.10;99.90;;;;;;7387791;19;20654;-76
2022/05/23 12:58:20;;;;;;;10.65;2.03;;;20.20;99.90;;;;;;7391433;19;20126;-75
2022/05/23 13:01:07;;;;;;;7.05;2.53;;;20.40;99.90;;;;;;7396205;19;20146;-74
2022/05/23 13:04:05;;;;;;;4.72;1.70;;;20.40;99.90;;;;;;7397839;19;20150;-75
2022/05/23 13:06:37;;;;;;;7.60;2.20;;;20.60;99.90;;;;;;7394437;19;20169;-74
2022/05/23 13:09:14;;;;;;;6.82;2.55;;;20.70;99.90;;;;;;7399476;19;20187;-76
2022/05/23 13:11:54;;;;;;;11.05;2.45;;;20.70;99.90;;;;;;7395062;19;20147;-74
2022/05/23 13:14:20;;;;;;;6.72;2.42;;;20.70;99.90;;;;;;7394186;19;20669;-75
2022/05/23 13:16:59;;;;;;;4.57;2.05;;;21.00;99.90;;;;;;7394094;19;20135;-74
2022/05/23 13:22:21;;;;;;;4.53;1.90;;;21.30;99.90;;;;;;7392821;19;20141;-75
2022/05/23 13:24:50;;;;;;;5.32;2.13;;;21.30;99.90;;;;;;7393416;19;20146;-75
2022/05/23 13:27:29;;;;;;;6.20;2.00;;;21.40;99.90;;;;;;7395884;19;20139;-74
2022/05/23 13:30:02;;;;;;;3.47;1.70;;;21.60;99.90;;;;;;7394967;19;20135;-74
2022/05/23 13:32:28;;;;;;;4.88;2.05;;;21.70;99.90;;;;;;7397441;19;20146;-73
2022/05/23 13:34:56;;;;;;;6.10;1.80;;;21.60;99.90;;;;;;7393132;19;20166;-75
2022/05/23 13:37:28;;;;;;;4.93;1.60;;;21.90;99.90;;;;;;7394278;19;20143;-74
2022/05/23 13:39:54;;;;;;;5.55;1.85;;;22.00;99.90;;;;;;7397060;19;20551;-74
2022/05/23 13:42:25;;;;;;;3.25;1.85;;;22.20;99.90;;;;;;7395463;19;20152;-75
2022/05/23 13:44:51;;;;;;;4.07;1.73;;;22.20;99.90;;;;;;7393309;19;20139;-74
2022/05/23 13:47:21;;;;;;;3.58;1.70;;;22.10;99.90;;;;;;7393257;19;20130;-73
2022/05/23 13:50:08;;;;;;;5.65;1.42;;;22.20;99.90;;;;;;7396432;19;20169;-76
2022/05/23 13:52:41;;;;;;;4.78;1.55;;;22.40;99.90;;;;;;7393876;19;20130;-74
2022/05/23 13:55:16;;;;;;;3.05;1.58;;;22.30;99.90;;;;;;7397455;19;20134;-73
2022/05/23 13:57:52;;;;;;;3.58;1.63;;;22.40;99.90;;;;;;7391157;19;20620;-75
2022/05/23 14:00:28;;;;;;;2.35;1.30;;;22.50;99.90;;;;;;7391895;19;20551;-74
2022/05/23 14:02:57;;;;;;;3.53;1.60;;;22.80;99.90;;;;;;7392842;19;20188;-74
2022/05/23 14:05:27;;;;;;;8.48;3.38;;;22.70;99.90;;;;;;7395890;19;20158;-74
2022/05/23 14:07:54;;;;;;;3.13;1.92;;;22.90;99.90;;;;;;7393322;19;20131;-74
2022/05/23 14:10:23;;;;;;;6.38;1.70;;;22.80;99.90;;;;;;7390391;19;20605;-72